ETAR

Ramstein Air Base Airport

Ramstein, Germany
METAR ETAR 242356Z AUTO 00000KT 9999 CLR 07/07 A2992 RMK AO2 SLP134 T00690069 10182 20064 57010 $
Observed Flight Rules
Apr-24 @ 23:56 UTC (47 minutes ago) Visual Flight Rules
Visibility Clouds
10,000+ meters
  • Clear skies
Temperatures Readings
Current 7°C / 45°F
Dewpoint 7°C / 45°F
Humidity 100%
Altimeter 29.92" Hg
Pressure 1013.4 hPa
Elevation 238
METAR ETAR 242356Z AUTO 00000KT 9999 CLR 07/07 A2992 RMK AO2 SLP134 T00690069 10182 20064 57010 $
Observed Flight Rules
Apr-24 @ 23:56 UTC
(47 minutes ago)
VFR
Clouds
  • Clear skies
Temperature Dewpoint
7°C / 45°F 7°C / 45°F
Humidity Altimeter Pressure
100% 29.92" Hg 1013.4 hPa